EGNC/CAX METAR and TAF weather

Enter ICAO airport designator
Station Type Date Time Source
EGNC METAR 2018/04/21 11:20 UTC NOAA

EGNC 211120Z 16006KT 110V210 9999 FEW023 16/05 Q1019


Station Type Date Time Source
EGNC Decoded METAR 2018/04/21 11:20 UTC NOAA

Carlisle, United Kingdom (EGNC) 54-56N 002-57W
Apr 21, 2018 - 07:20 AM EDT / 2018.04.21 1120 UTC
Wind: from the SSE (160 degrees) at 7 MPH (6 KT) (direction variable):0
Visibility: greater than 7 mile(s):0
Sky conditions: mostly clear
Temperature: 60 F (16 C)
Dew Point: 41 F (5 C)
Relative Humidity: 47%
Pressure (altimeter): 30.09 in. Hg (1019 hPa)
ob: EGNC 211120Z 16006KT 110V210 9999 FEW023 16/05 Q1019
cycle: 11

Station Type Date Time Source
EGNC TAF UTC NOAA

Error!


Example: see airport list